sim
Sign-in with your pilot id or email,
or register
Callsign
Passwort

Schedule Details

Flight Number: RYR8583 (3)
Departure: Thessaloniki International Airport (LGTS) at 13:45
Arrival: London Stansted Airport (EGSS) at 17:10
Route: Ryanair Passenger Schedule. Enter filed route here before submitting Pirep.

Weather Information
Getting current METAR information for LGTS 211820Z 10005KT CAVOK 27/13 Q1016 NOSIG
Getting current METAR information for EGSS 211820Z AUTO 20008KT 9999 BKN048 20/10 Q1025

Schedule Frequency

Route Map